Latest Weather Observations for Geraldton Airport

IDW60801

Issued at 3:04 pm WST Saturday 24 June 2017 (issued every 30 minutes, with the page automatically refreshed every 10 minutes)

About weather observations | Map of weather stations | Latest weather observations for WA | Other Formats
Station Details ID: 008315 Name: GERALDTON AIRPORT Lat: -28.80 Lon: 114.70 Height: 29.7 m
Data from the previous 72 hours. | See also: Recent months at Geraldton Airport
Date/Time
WST
Temp
°C
App
Temp
°C
Dew
Point
°C
Rel
Hum
%
Delta-T
°C
Wind Press
QNH
hPa
Press
MSL
hPa
Rain since
9am
mm
Dir  Spd
km/h
Gust
km/h
Spd
kts
Gust
kts
24/03:00pm 21.4 15.7 8.2 42 6.9 SE 28 35 15 19 1017.9 1018.0 0.0
24/02:30pm 21.7 16.8 9.9 47 6.4 SE 26 35 14 19 1017.9 - 0.0
24/02:00pm 21.8 16.3 9.3 45 6.7 ESE 28 35 15 19 1017.9 - 0.0
24/01:30pm 21.5 15.6 9.2 45 6.6 ESE 30 37 16 20 1018.3 - 0.0
24/01:00pm 21.3 16.1 10.1 48 6.1 E 28 39 15 21 1018.7 - 0.0
24/12:30pm 20.4 14.8 10.2 52 5.5 E 30 37 16 20 1019.0 - 0.0
24/12:00pm 19.5 13.7 10.8 57 4.7 E 32 37 17 20 1019.4 1019.5 0.0
24/11:30am 18.7 13.0 11.0 61 4.2 E 32 39 17 21 1019.8 - 0.0
24/11:00am 18.1 12.3 10.7 62 4.0 E 32 43 17 23 1020.2 - 0.0
24/10:30am 17.2 10.6 10.1 63 3.8 E 35 43 19 23 1020.5 - 0.0
24/10:00am 16.3 9.0 10.3 67 3.2 E 39 52 21 28 1020.6 - 0.0
24/09:30am 15.4 8.3 9.7 69 3.0 E 37 50 20 27 1020.5 - 0.0
24/09:00am 14.4 6.9 9.3 71 2.6 E 39 50 21 27 1020.3 1020.4 6.2
24/08:30am 13.4 5.4 9.1 75 2.2 E 41 50 22 27 1020.0 - 6.2
24/08:00am 12.7 5.4 8.9 78 1.9 E 37 48 20 26 1020.0 - 6.2
24/07:54am 12.7 5.1 8.9 78 1.9 E 39 46 21 25 1019.9 - 6.2
24/07:30am 12.2 6.7 9.0 81 1.6 SE 28 39 15 21 1019.8 - 6.2
24/07:00am 12.4 5.9 9.0 80 1.7 ESE 33 41 18 22 1019.1 - 6.2
24/06:30am 12.7 6.8 9.0 78 1.9 ESE 30 39 16 21 1018.8 - 6.2
24/06:00am 13.0 7.8 9.0 77 2.0 ESE 26 33 14 18 1018.4 1018.5 6.2
24/05:30am 13.4 8.6 8.9 74 2.3 ESE 24 32 13 17 1018.2 - 6.2
24/05:00am 13.6 12.3 9.1 74 2.3 ESE 6 17 3 9 1018.1 - 6.2
24/04:30am 13.7 13.5 9.0 73 2.4 CALM 0 7 0 4 1018.4 - 6.2
24/04:00am 13.5 12.0 9.2 75 2.2 SSW 7 11 4 6 1018.5 - 6.2
24/03:30am 13.2 11.6 10.1 81 1.6 SSW 9 9 5 5 1018.5 - 6.2
24/03:00am 14.6 13.4 9.6 72 2.6 E 6 9 3 5 1018.5 1018.6 6.2
24/02:30am 15.1 12.5 9.5 69 2.9 SE 13 17 7 9 1018.4 - 6.2
24/02:00am 14.7 13.2 10.7 77 2.1 SSW 9 15 5 8 1018.4 - 6.2
24/01:30am 15.6 14.4 9.7 68 3.1 ENE 6 9 3 5 1018.0 - 6.2
24/01:00am 15.9 12.3 10.0 68 3.1 E 19 24 10 13 1017.8 - 6.2
24/12:30am 15.9 13.0 10.9 72 2.7 E 17 22 9 12 1017.6 - 6.0
24/12:00am 16.5 12.5 10.3 67 3.3 E 22 30 12 16 1017.4 1017.4 6.0
 
Date/Time
WST
Temp
°C
App
Temp
°C
Dew
Point
°C
Rel
Hum
%
Delta-T
°C
Wind Press
QNH
hPa
Press
MSL
hPa
Rain since
9am
mm
Dir  Spd
km/h
Gust
km/h
Spd
kts
Gust
kts
23/11:30pm 16.3 13.2 11.5 73 2.6 E 19 22 10 12 1017.5 - 6.0
23/11:00pm 16.1 14.0 12.4 79 2.0 E 15 20 8 11 1017.6 - 6.0
23/10:30pm 15.6 15.1 13.9 90 1.0 SSE 9 11 5 6 1017.5 - 6.0
23/10:00pm 15.7 15.3 14.0 90 1.0 SSE 9 13 5 7 1017.4 - 6.0
23/09:30pm 15.7 15.6 13.9 89 1.0 ESE 7 9 4 5 1017.2 - 6.0
23/09:00pm 15.7 14.4 13.7 88 1.1 ESE 13 17 7 9 1017.2 1017.2 6.0
23/08:30pm 15.7 12.0 13.8 88 1.1 E 26 33 14 18 1017.1 - 6.0
23/08:00pm 15.8 13.3 14.2 90 0.9 E 20 28 11 15 1016.8 - 6.0
23/07:31pm 15.7 14.0 14.6 93 0.6 ESE 17 19 9 10 1016.6 - 5.8
23/07:30pm 15.7 14.4 14.7 94 0.6 ESE 15 19 8 10 1016.6 - 5.8
23/07:00pm 15.8 15.3 14.8 94 0.6 ESE 11 13 6 7 1016.4 - 4.4
23/06:30pm 16.0 12.5 14.6 91 0.8 NE 26 35 14 19 1015.9 - 2.8
23/06:24pm 16.7 13.2 14.5 87 1.3 NE 26 35 14 19 1015.8 - 0.4
23/06:00pm 16.8 18.0 13.8 82 1.7 CALM 0 0 0 0 1015.1 1015.1 0.0
23/05:30pm 18.1 19.0 14.1 77 2.3 N 2 7 1 4 1014.6 - 0.0
23/05:00pm 19.3 18.5 14.0 71 3.1 NW 11 13 6 7 1014.2 - 0.0
23/04:30pm 19.9 17.8 13.5 66 3.7 NNW 17 24 9 13 1014.1 - 0.0
23/04:00pm 20.5 17.9 13.3 63 4.1 NW 19 24 10 13 1014.0 - 0.0
23/03:30pm 20.5 17.8 13.4 63 4.1 NW 20 30 11 16 1014.0 - 0.0
23/03:00pm 20.8 17.3 13.5 63 4.2 NW 24 30 13 16 1013.9 1013.9 0.0
23/02:30pm 21.1 17.6 13.3 61 4.5 NW 24 32 13 17 1013.9 - 0.0
23/02:00pm 21.1 17.5 13.1 60 4.6 NNW 24 32 13 17 1014.0 - 0.0
23/01:30pm 20.6 17.5 13.5 63 4.1 NNW 22 32 12 17 1014.2 - 0.0
23/01:00pm 20.1 17.3 13.1 64 4.0 NNW 20 26 11 14 1014.5 - 0.0
23/12:30pm 19.9 16.5 12.5 62 4.2 NNW 22 30 12 16 1014.9 - 0.0
23/12:00pm 19.3 16.6 13.4 68 3.4 NNW 20 24 11 13 1015.3 1015.3 0.0
23/11:30am 19.2 16.7 14.2 73 2.9 N 20 26 11 14 1015.5 - 0.0
23/11:00am 18.7 15.9 14.4 76 2.5 N 22 28 12 15 1015.9 - 0.0
23/10:30am 18.0 15.1 14.0 77 2.3 NNW 22 28 12 15 1016.2 - 0.0
23/10:00am 17.4 15.2 14.3 82 1.8 N 19 22 10 12 1016.2 - 0.0
23/09:30am 16.2 14.9 14.8 91 0.8 N 15 20 8 11 1016.3 - 0.0
23/09:07am 14.8 12.4 13.7 93 0.6 N 19 20 10 11 1016.2 - 0.0
23/09:00am 15.0 13.0 14.0 94 0.6 N 17 20 9 11 1016.1 1016.1 7.8
23/08:50am 15.3 13.0 14.1 92 0.7 N 19 20 10 11 1016.1 - 7.8
23/08:30am 14.8 13.0 13.4 91 0.8 N 15 20 8 11 1016.1 - 7.8
23/08:00am 14.2 11.6 13.1 93 0.6 N 19 24 10 13 1015.8 - 7.8
23/07:30am 13.5 10.5 12.6 94 0.5 NNE 20 24 11 13 1015.5 - 7.6
23/07:00am 13.8 10.8 12.7 93 0.6 NNE 20 26 11 14 1015.2 - 7.6
23/06:48am 13.9 11.0 13.0 94 0.5 NNE 20 22 11 12 1015.3 - 7.6
23/06:30am 13.9 11.3 13.1 95 0.4 NNE 19 20 10 11 1015.1 - 7.6
23/06:00am 14.3 14.0 13.2 93 0.6 N 7 11 4 6 1015.2 1015.2 3.2
23/05:30am 14.5 12.1 12.5 88 1.1 N 17 20 9 11 1015.1 - 1.6
23/05:21am 14.7 11.7 12.6 87 1.2 N 20 24 11 13 1015.1 - 1.6
23/05:09am 14.9 12.2 13.4 91 0.8 N 20 24 11 13 1015.1 - 1.6
23/05:00am 14.2 11.5 13.0 92 0.7 NNE 19 24 10 13 1015.2 - 1.6
23/04:56am 14.3 11.7 13.2 93 0.6 NNE 19 24 10 13 1015.2 - 1.4
23/04:30am 14.3 12.4 13.0 92 0.7 N 15 17 8 9 1015.2 - 1.2
23/04:00am 14.7 12.5 13.3 91 0.8 NNW 17 19 9 10 1015.3 - 1.2
23/03:30am 15.6 13.9 13.6 88 1.1 NNW 15 19 8 10 1015.4 - 1.2
23/03:00am 15.6 13.8 13.4 87 1.2 NW 15 17 8 9 1015.3 1015.3 1.2
23/02:30am 16.2 13.6 13.2 82 1.7 WSW 19 24 10 13 1015.3 - 1.2
23/02:00am 15.8 14.7 13.1 84 1.5 W 11 17 6 9 1015.3 - 1.2
23/01:30am 15.9 14.5 13.4 85 1.4 W 13 17 7 9 1015.4 - 1.2
23/01:00am 15.8 13.8 12.7 82 1.7 WNW 15 20 8 11 1015.5 - 1.2
23/12:56am 16.1 13.7 12.7 80 1.9 WNW 17 24 9 13 1015.6 - 1.2
23/12:38am 16.3 14.1 13.3 82 1.7 NW 17 28 9 15 1015.8 - 1.0
23/12:30am 16.3 14.4 12.9 80 1.9 WNW 15 19 8 10 1015.8 - 0.8
23/12:00am 17.0 13.0 11.9 72 2.8 W 24 32 13 17 1016.0 1016.0 0.8
 
Date/Time
WST
Temp
°C
App
Temp
°C
Dew
Point
°C
Rel
Hum
%
Delta-T
°C
Wind Press
QNH
hPa
Press
MSL
hPa
Rain since
9am
mm
Dir  Spd
km/h
Gust
km/h
Spd
kts
Gust
kts
22/11:30pm 16.4 13.9 12.4 77 2.2 WNW 17 20 9 11 1016.2 - 0.8
22/11:00pm 16.1 13.5 12.1 77 2.2 WNW 17 20 9 11 1016.5 - 0.8
22/10:30pm 16.3 13.9 12.7 79 2.0 WNW 17 20 9 11 1016.7 - 0.8
22/10:00pm 16.4 14.6 13.2 81 1.8 W 15 20 8 11 1016.8 - 0.8
22/09:30pm 16.3 13.7 12.1 76 2.3 WNW 17 22 9 12 1016.9 - 0.8
22/09:00pm 17.2 13.5 12.6 74 2.6 WNW 24 33 13 18 1016.9 1016.9 0.8
22/08:30pm 16.9 14.0 12.8 77 2.3 WNW 20 24 11 13 1017.0 - 0.8
22/08:00pm 16.3 13.3 12.7 79 2.0 W 20 28 11 15 1017.0 - 0.8
22/07:30pm 17.1 13.4 12.6 75 2.5 W 24 30 13 16 1016.9 - 0.6
22/07:00pm 16.7 13.6 13.3 80 1.9 W 22 32 12 17 1016.7 - 0.6
22/06:30pm 17.0 12.9 12.7 76 2.4 W 26 35 14 19 1016.5 - 0.6
22/06:00pm 16.4 13.6 13.2 81 1.8 W 20 30 11 16 1016.3 1016.3 0.6
22/05:39pm 16.3 13.2 13.5 83 1.6 W 22 32 12 17 1016.3 - 0.6
22/05:30pm 16.6 12.8 13.6 82 1.7 W 26 35 14 19 1016.2 - 0.6
22/05:23pm 16.6 12.9 13.8 83 1.6 W 26 35 14 19 1016.2 - 0.6
22/05:00pm 17.7 13.4 13.3 75 2.5 W 28 39 15 21 1016.1 - 0.4
22/04:30pm 17.3 13.0 13.1 76 2.4 W 28 39 15 21 1016.1 - 0.4
22/04:16pm 17.4 15.9 14.3 82 1.8 W 15 30 8 16 1016.2 - 0.4
22/04:00pm 16.6 12.5 12.8 78 2.1 W 26 37 14 20 1016.2 - 0.2
22/03:57pm 16.9 12.4 12.6 76 2.4 W 28 41 15 22 1016.3 - 0.2
22/03:51pm 17.7 12.3 12.1 69 3.1 W 32 50 17 27 1016.2 - 0.2
22/03:30pm 19.2 13.2 12.2 64 3.9 W 35 46 19 25 1016.0 - 0.2
22/03:00pm 19.3 13.1 11.5 60 4.3 W 35 44 19 24 1015.9 1015.9 0.2
22/02:30pm 19.2 12.9 12.4 64 3.8 WSW 37 50 20 27 1016.1 - 0.2
22/02:00pm 19.8 12.9 11.5 58 4.6 W 39 50 21 27 1016.0 - 0.2
22/01:30pm 19.7 12.9 11.8 60 4.4 WSW 39 54 21 29 1016.2 - 0.2
22/01:00pm 19.6 13.6 12.2 62 4.1 WSW 35 56 19 30 1016.2 - 0.2
22/12:53pm 19.3 13.9 12.8 66 3.7 WSW 33 52 18 28 1016.2 - 0.2
22/12:30pm 18.7 11.3 11.2 61 4.1 WSW 41 50 22 27 1016.5 - 0.2
22/12:00pm 19.3 13.5 12.8 66 3.7 WSW 35 56 19 30 1016.9 1016.9 0.2
22/11:30am 18.8 13.4 12.8 68 3.4 WSW 33 44 18 24 1017.3 - 0.2
22/11:00am 18.5 13.0 12.6 68 3.3 WSW 33 44 18 24 1017.5 - 0.2
22/10:30am 16.8 11.7 13.6 81 1.8 W 33 46 18 25 1017.8 - 0.2
22/10:26am 17.1 10.8 13.4 79 2.1 W 39 46 21 25 1017.8 - 0.2
22/10:11am 18.1 12.0 11.6 66 3.6 WSW 35 54 19 29 1017.9 - 0.0
22/10:00am 18.6 14.0 12.4 67 3.5 W 28 41 15 22 1017.8 - 0.0
22/09:30am 17.5 11.8 11.7 69 3.2 W 33 43 18 23 1017.9 - 0.0
22/09:00am 16.0 11.3 13.1 83 1.6 WSW 30 43 16 23 1018.0 1018.1 8.6
22/08:30am 17.2 12.9 11.9 71 2.9 WSW 26 37 14 20 1017.6 - 8.6
22/08:15am 16.3 11.4 12.7 79 2.0 WSW 30 48 16 26 1017.6 - 8.6
22/08:00am 16.7 12.0 11.9 73 2.6 W 28 39 15 21 1017.3 - 8.6
22/07:30am 15.8 11.9 12.0 78 2.1 W 24 35 13 19 1017.2 - 8.4
22/07:00am 15.6 10.5 11.9 78 2.0 WSW 30 39 16 21 1017.0 - 8.4
22/06:52am 15.4 10.5 12.7 84 1.5 WSW 30 48 16 26 1017.0 - 8.4
22/06:43am 15.1 9.1 12.2 83 1.6 WSW 35 48 19 26 1017.0 - 8.0
22/06:30am 16.3 11.1 11.7 74 2.5 WSW 30 43 16 23 1016.7 - 7.4
22/06:00am 16.2 11.2 12.2 77 2.2 WSW 30 41 16 22 1016.6 1016.6 7.4
22/05:48am 15.6 12.5 12.3 81 1.8 WSW 20 30 11 16 1016.6 - 7.4
22/05:30am 14.6 12.1 13.4 92 0.7 WSW 19 32 10 17 1016.6 - 7.4
22/05:13am 14.9 10.6 13.1 89 1.0 WSW 28 39 15 21 1016.8 - 6.6
22/05:00am 15.5 11.6 12.2 81 1.8 SW 24 33 13 18 1016.6 - 6.0
22/04:43am 14.3 13.8 12.7 90 0.9 W 7 13 4 7 1016.8 - 6.0
22/04:30am 14.3 11.8 12.3 88 1.1 WNW 17 20 9 11 1016.7 - 6.0
22/04:20am 14.6 11.7 13.0 90 0.9 WNW 20 28 11 15 1016.8 - 4.6
22/04:03am 14.9 10.5 12.8 87 1.2 W 28 43 15 23 1016.9 - 4.4
22/04:00am 15.5 11.3 12.4 82 1.7 W 26 43 14 23 1016.9 - 4.2
22/03:30am 15.7 11.6 11.5 76 2.3 W 24 37 13 20 1016.8 - 4.2
22/03:00am 15.0 11.7 10.9 76 2.2 WSW 19 24 10 13 1016.9 1016.9 4.2
22/02:30am 15.4 11.3 11.4 77 2.1 W 24 39 13 21 1017.2 - 4.2
22/02:00am 15.9 12.3 10.6 71 2.8 W 20 26 11 14 1017.2 - 4.0
22/01:30am 15.1 12.1 10.6 74 2.4 W 17 20 9 11 1017.3 - 4.0
22/01:00am 16.2 12.2 10.6 69 3.0 W 22 32 12 17 1017.4 - 4.0
22/12:30am 14.9 11.3 11.9 82 1.6 WSW 22 35 12 19 1017.6 - 4.0
22/12:00am 16.3 11.7 10.9 70 2.9 W 26 32 14 17 1017.7 1017.8 4.0
 
Date/Time
WST
Temp
°C
App
Temp
°C
Dew
Point
°C
Rel
Hum
%
Delta-T
°C
Wind Press
QNH
hPa
Press
MSL
hPa
Rain since
9am
mm
Dir  Spd
km/h
Gust
km/h
Spd
kts
Gust
kts
21/11:30pm 14.1 13.6 12.1 88 1.1 W 6 9 3 5 1018.1 - 4.0
21/11:00pm 15.1 12.8 11.6 79 1.9 SW 15 19 8 10 1018.1 - 3.8
21/10:43pm 15.6 10.9 11.9 78 2.0 WSW 28 39 15 21 1018.2 - 3.8
21/10:30pm 15.8 12.8 12.0 78 2.1 WSW 19 35 10 19 1018.1 - 3.8
21/10:24pm 15.1 12.7 11.4 78 2.0 WSW 15 19 8 10 1018.1 - 3.8
21/10:00pm 15.2 12.5 11.7 79 1.9 WSW 17 20 9 11 1018.3 - 3.8
21/09:30pm 15.4 12.5 12.2 81 1.7 SW 19 26 10 14 1018.4 - 3.8
21/09:00pm 15.9 12.6 11.6 75 2.3 WSW 20 35 11 19 1018.4 1018.5 3.8
21/08:46pm 15.1 12.9 12.2 83 1.6 WSW 15 20 8 11 1018.3 - 3.8
21/08:30pm 14.6 12.9 12.5 87 1.1 SSW 13 30 7 16 1018.4 - 3.8
21/08:20pm 14.8 10.8 11.9 83 1.6 W 24 32 13 17 1018.6 - 2.8
21/08:00pm 15.4 11.8 11.8 79 1.9 W 22 30 12 16 1018.4 - 2.2
21/07:30pm 14.9 15.5 13.1 89 1.0 W 2 7 1 4 1018.3 - 2.2
21/07:29pm 15.0 15.2 13.2 89 1.0 W 4 7 2 4 1018.4 - 2.2
21/07:06pm 14.4 13.3 13.1 92 0.7 N 11 15 6 8 1018.4 - 1.4
21/07:00pm 14.3 13.9 12.9 91 0.8 N 7 11 4 6 1018.3 - 0.4
21/06:30pm 14.8 14.5 12.6 87 1.2 NNW 6 7 3 4 1017.9 - 0.4
21/06:00pm 15.1 12.4 12.9 87 1.2 WNW 19 22 10 12 1018.2 1018.3 0.4
21/05:30pm 15.4 13.5 11.9 79 1.9 WSW 13 26 7 14 1017.4 - 0.4
21/05:00pm 15.6 15.3 13.3 86 1.3 W 7 9 4 5 1017.9 - 0.4
21/04:55pm 15.5 15.2 13.3 87 1.2 WSW 7 11 4 6 1017.6 - 0.4
21/04:35pm 16.0 13.3 13.0 82 1.7 WSW 19 28 10 15 1017.6 - 0.4
21/04:30pm 16.5 13.5 12.0 75 2.5 SW 19 24 10 13 1017.6 - 0.0
21/04:00pm 16.7 15.0 11.2 70 3.0 SW 11 17 6 9 1017.4 - 0.0
21/03:30pm 17.2 13.9 11.5 69 3.1 WSW 20 24 11 13 1017.5 - 0.0

Other Formats:

Comma delimited format used in spreadsheet applications
http://www.bom.gov.au/fwo/IDW60801/IDW60801.94403.axf

JavaScript Object Notation format (JSON) in row-major order
http://www.bom.gov.au/fwo/IDW60801/IDW60801.94403.json